Time;durP1;ratioP1;P1;durP2;ratioP2;P2;SDS_P1;SDS_P2;PMS_P1;PMS_P2;Temp;Humidity;BMP_temperature;BMP_pressure;BME280_temperature;BME280_humidity;BME280_pressure;Samples;Min_cycle;Max_cycle;Signal;HPM_P1;HPM_P2
2022/10/15 00:01:14;;;;;;;;;;;16.50;99.90;;;;;;5078213;28;19905;-70
2022/10/15 00:03:40;;;;;;;;;;;16.40;99.90;;;;;;5078981;28;19912;-70
2022/10/15 00:06:07;;;;;;;;;;;16.40;99.90;;;;;;5078581;28;20332;-69
2022/10/15 00:08:32;;;;;;;;;;;16.30;99.90;;;;;;5078817;28;19904;-71
2022/10/15 00:11:06;;;;;;;;;;;16.30;99.90;;;;;;5078521;28;20228;-70
2022/10/15 00:13:32;;;;;;;;;;;16.30;99.90;;;;;;5078339;28;20016;-71
2022/10/15 00:15:57;;;;;;;;;;;16.30;99.90;;;;;;5079086;28;20331;-70
2022/10/15 00:18:23;;;;;;;;;;;16.20;99.90;;;;;;5078439;28;20287;-70
2022/10/15 00:20:49;;;;;;;;;;;16.30;99.90;;;;;;5078418;28;19947;-70
2022/10/15 00:23:14;;;;;;;;;;;16.20;99.90;;;;;;5078323;28;20390;-71
2022/10/15 00:25:41;;;;;;;;;;;16.20;99.90;;;;;;5078379;28;19947;-71
2022/10/15 00:28:07;;;;;;;;;;;16.20;99.90;;;;;;5077191;28;20390;-71
2022/10/15 00:30:32;;;;;;;;;;;16.20;99.90;;;;;;5078753;28;19958;-71
2022/10/15 00:32:58;;;;;;;;;;;16.20;99.90;;;;;;5078422;28;19911;-71
2022/10/15 00:35:24;;;;;;;;;;;16.20;99.90;;;;;;5078371;28;19905;-70
2022/10/15 00:37:49;;;;;;;;;;;16.20;99.90;;;;;;5078746;28;20004;-70
2022/10/15 00:40:15;;;;;;;;;;;16.30;99.90;;;;;;5075361;28;19904;-70
2022/10/15 00:42:40;;;;;;;;;;;16.20;99.90;;;;;;5074779;28;19915;-71
2022/10/15 00:45:10;;;;;;;;;;;16.20;99.90;;;;;;5075435;28;19916;-70
2022/10/15 00:47:47;;;;;;;;;;;16.20;99.90;;;;;;5075137;28;20366;-70
2022/10/15 00:50:21;;;;;;;;;;;16.20;99.90;;;;;;5073844;28;19908;-70
2022/10/15 00:53:13;;;;;;;;;;;16.20;99.90;;;;;;5074903;28;19912;-71
2022/10/15 00:55:40;;;;;;;;;;;16.20;99.90;;;;;;5070645;28;19909;-70
2022/10/15 00:58:10;;;;;;;;;;;16.20;99.90;;;;;;5074837;28;20013;-71
2022/10/15 01:00:36;;;;;;;;;;;16.20;99.90;;;;;;5075207;28;19904;-70
2022/10/15 01:03:01;;;;;;;;;;;16.20;99.90;;;;;;5074703;28;20275;-71
2022/10/15 01:05:27;;;;;;;;;;;16.20;99.90;;;;;;5074733;28;20279;-71
2022/10/15 01:07:53;;;;;;;;;;;16.20;99.90;;;;;;5074736;28;19950;-71
2022/10/15 01:10:19;;;;;;;;;;;16.20;99.90;;;;;;5074407;28;20835;-70
2022/10/15 01:13:03;;;;;;;;;;;16.20;99.90;;;;;;5074852;28;20376;-70
2022/10/15 01:15:44;;;;;;;;;;;16.20;99.90;;;;;;5074557;28;19904;-71
2022/10/15 01:18:09;;;;;;;;;;;16.20;99.90;;;;;;5074318;28;19920;-70
2022/10/15 01:20:53;;;;;;;;;;;16.10;99.90;;;;;;5074292;28;19919;-69
2022/10/15 01:23:31;;;;;;;;;;;16.10;99.90;;;;;;5077466;28;19912;-70
2022/10/15 01:26:06;;;;;;;;;;;16.10;99.90;;;;;;5074325;28;19979;-69
2022/10/15 01:28:35;;;;;;;;;;;16.10;99.90;;;;;;5073662;28;19912;-71
2022/10/15 01:31:03;;;;;;;;;;;16.10;99.90;;;;;;5073637;28;19916;-70
2022/10/15 01:34:01;;;;;;;;;;;16.10;99.90;;;;;;5073877;28;19911;-71
2022/10/15 01:36:33;;;;;;;;;;;16.20;99.90;;;;;;5010675;28;19905;-71
2022/10/15 01:39:03;;;;;;;;;;;16.10;99.90;;;;;;5012050;28;19905;-70
2022/10/15 01:41:41;;;;;;;;;;;16.10;99.90;;;;;;5012183;28;20009;-71
2022/10/15 01:44:21;;;;;;;;;;;16.10;99.90;;;;;;5012072;28;19960;-70
2022/10/15 01:46:50;;;;;;;;;;;16.20;99.90;;;;;;5011762;28;19916;-70
2022/10/15 01:49:20;;;;;;;;;;;16.20;99.90;;;;;;4995640;28;20296;-70
2022/10/15 01:51:47;;;;;;;;;;;16.20;99.90;;;;;;5011394;28;19909;-70
2022/10/15 01:54:15;;;;;;;;;;;16.20;99.90;;;;;;5011533;28;19996;-70
2022/10/15 01:56:45;;;;;;;;;;;16.10;99.90;;;;;;4995494;28;19992;-70
2022/10/15 01:59:11;;;;;;;;;;;16.10;99.90;;;;;;5012392;28;19906;-70
2022/10/15 02:01:40;;;;;;;;;;;16.10;99.90;;;;;;5011812;28;19964;-70
2022/10/15 02:04:16;;;;;;;;;;;16.10;99.90;;;;;;5011705;28;20455;-70
2022/10/15 02:06:43;;;;;;;;;;;16.10;99.90;;;;;;5011594;28;19912;-71
2022/10/15 02:09:11;;;;;;;;;;;16.10;99.90;;;;;;5011336;28;19905;-70
2022/10/15 02:11:47;;;;;;;;;;;16.10;99.90;;;;;;5025756;28;19905;-71
2022/10/15 02:14:20;;;;;;;;;;;16.10;99.90;;;;;;5053450;28;19915;-70
2022/10/15 02:16:54;;;;;;;;;;;16.10;99.90;;;;;;5052068;28;20333;-71
2022/10/15 02:19:29;;;;;;;;;;;16.00;99.90;;;;;;5053295;28;19916;-70
2022/10/15 02:22:10;;;;;;;;;;;16.00;99.90;;;;;;5053186;28;19944;-71
2022/10/15 02:24:39;;;;;;;;;;;16.00;99.90;;;;;;5052817;28;19913;-70
2022/10/15 02:27:06;;;;;;;;;;;16.00;99.90;;;;;;5052487;28;19912;-70
2022/10/15 02:29:33;;;;;;;;;;;16.00;99.90;;;;;;5053366;28;19951;-70
2022/10/15 02:32:00;;;;;;;;;;;16.00;99.90;;;;;;5053149;28;20287;-70
2022/10/15 02:34:28;;;;;;;;;;;16.00;99.90;;;;;;5052972;28;19911;-70
2022/10/15 02:36:53;;;;;;;;;;;16.00;99.90;;;;;;5053078;28;19916;-70
2022/10/15 02:39:21;;;;;;;;;;;16.00;99.90;;;;;;5052639;28;20172;-70
2022/10/15 02:41:47;;;;;;;;;;;16.00;99.90;;;;;;5053240;28;19905;-70
2022/10/15 02:44:12;;;;;;;;;;;15.90;99.90;;;;;;5052863;28;20367;-70
2022/10/15 02:46:38;;;;;;;;;;;15.90;99.90;;;;;;5070068;28;19995;-70
2022/10/15 02:49:03;;;;;;;;;;;15.90;99.90;;;;;;5072801;28;19908;-70
2022/10/15 02:51:33;;;;;;;;;;;15.90;99.90;;;;;;5072712;28;20377;-70
2022/10/15 02:53:59;;;;;;;;;;;15.90;99.90;;;;;;5073041;28;20302;-70
2022/10/15 02:56:25;;;;;;;;;;;15.90;99.90;;;;;;5072726;28;19904;-70
2022/10/15 02:58:51;;;;;;;;;;;15.90;99.90;;;;;;5072750;28;19904;-70
2022/10/15 03:01:16;;;;;;;;;;;15.80;99.90;;;;;;5072729;28;19905;-70
2022/10/15 03:03:42;;;;;;;;;;;15.80;99.90;;;;;;5071792;28;19935;-70
2022/10/15 03:06:07;;;;;;;;;;;15.80;99.90;;;;;;5072485;28;19973;-70
2022/10/15 03:08:33;;;;;;;;;;;15.80;99.90;;;;;;5072603;28;19904;-70
2022/10/15 03:11:00;;;;;;;;;;;15.80;99.90;;;;;;5072458;28;19911;-70
2022/10/15 03:13:26;;;;;;;;;;;15.80;99.90;;;;;;5072432;28;20041;-70
2022/10/15 03:15:51;;;;;;;;;;;15.70;99.90;;;;;;5072852;28;19986;-70
2022/10/15 03:18:17;;;;;;;;;;;15.60;99.90;;;;;;5072102;28;20408;-70
2022/10/15 03:20:42;;;;;;;;;;;15.60;99.90;;;;;;5072057;28;20393;-71
2022/10/15 03:23:08;;;;;;;;;;;15.70;99.90;;;;;;5072348;28;20297;-70
2022/10/15 03:25:34;;;;;;;;;;;15.60;99.90;;;;;;5072815;28;19987;-70
2022/10/15 03:27:59;;;;;;;;;;;15.60;99.90;;;;;;5072372;28;19950;-70
2022/10/15 03:30:25;;;;;;;;;;;15.60;99.90;;;;;;5072350;28;20389;-70
2022/10/15 03:32:50;;;;;;;;;;;15.50;99.90;;;;;;5072190;28;19947;-70
2022/10/15 03:35:16;;;;;;;;;;;15.40;99.90;;;;;;5074850;28;19978;-71
2022/10/15 03:37:41;;;;;;;;;;;15.30;99.90;;;;;;5073503;28;20268;-70
2022/10/15 03:40:07;;;;;;;;;;;15.30;99.90;;;;;;5072231;28;19936;-71
2022/10/15 03:42:33;;;;;;;;;;;15.20;99.90;;;;;;5072011;28;19919;-70
2022/10/15 03:44:58;;;;;;;;;;;15.20;99.90;;;;;;5072029;28;20315;-70
2022/10/15 03:47:24;;;;;;;;;;;15.10;99.90;;;;;;5072522;28;19931;-70
2022/10/15 03:49:50;;;;;;;;;;;15.10;99.90;;;;;;5071895;28;19905;-70
2022/10/15 03:52:15;;;;;;;;;;;15.00;99.90;;;;;;5072131;28;19905;-70
2022/10/15 03:54:41;;;;;;;;;;;15.00;99.90;;;;;;5072092;28;19904;-70
2022/10/15 03:57:06;;;;;;;;;;;14.90;99.90;;;;;;5072113;28;19911;-70
2022/10/15 03:59:32;;;;;;;;;;;14.80;99.90;;;;;;5072020;28;19912;-70
2022/10/15 04:01:57;;;;;;;;;;;14.80;99.90;;;;;;5071662;28;19991;-70
2022/10/15 04:04:23;;;;;;;;;;;14.70;99.90;;;;;;5071710;28;19982;-70
2022/10/15 04:06:48;;;;;;;;;;;14.70;99.90;;;;;;5071817;28;20362;-70
2022/10/15 04:09:14;;;;;;;;;;;14.70;99.90;;;;;;5072649;28;20382;-70
2022/10/15 04:11:40;;;;;;;;;;;14.70;99.90;;;;;;5071877;28;19931;-70
2022/10/15 04:14:05;;;;;;;;;;;14.60;99.90;;;;;;5072222;28;19912;-69
2022/10/15 04:16:32;;;;;;;;;;;14.50;99.90;;;;;;5075668;28;19908;-70
2022/10/15 04:18:57;;;;;;;;;;;14.60;99.90;;;;;;5074991;28;19927;-69
2022/10/15 04:21:23;;;;;;;;;;;14.50;99.90;;;;;;5075664;28;19904;-70
2022/10/15 04:23:49;;;;;;;;;;;14.50;99.90;;;;;;5075886;28;19912;-69
2022/10/15 04:26:15;;;;;;;;;;;14.40;99.90;;;;;;5075484;28;20374;-69
2022/10/15 04:28:40;;;;;;;;;;;14.40;99.90;;;;;;5075509;28;19905;-69
2022/10/15 04:31:06;;;;;;;;;;;14.40;99.90;;;;;;5075689;28;19904;-69
2022/10/15 04:33:31;;;;;;;;;;;14.30;99.90;;;;;;5075042;28;20389;-70
2022/10/15 04:36:00;;;;;;;;;;;14.20;99.90;;;;;;5075292;28;20367;-69
2022/10/15 04:38:26;;;;;;;;;;;14.20;99.90;;;;;;5075718;28;19911;-69
2022/10/15 04:41:03;;;;;;;;;;;14.20;99.90;;;;;;5075351;28;19913;-70
2022/10/15 04:43:29;;;;;;;;;;;14.10;99.90;;;;;;5074933;28;19967;-70
2022/10/15 04:45:55;;;;;;;;;;;14.10;99.90;;;;;;5075014;28;20001;-69
2022/10/15 04:48:21;;;;;;;;;;;14.10;99.90;;;;;;5074958;28;20290;-69
2022/10/15 04:50:46;;;;;;;;;;;14.10;99.90;;;;;;5075060;28;19905;-69
2022/10/15 04:53:12;;;;;;;;;;;14.10;99.90;;;;;;5075395;28;19983;-69
2022/10/15 04:55:37;;;;;;;;;;;14.10;99.90;;;;;;5074937;28;19912;-69
2022/10/15 04:58:03;;;;;;;;;;;14.00;99.90;;;;;;5074920;28;19967;-69
2022/10/15 05:00:28;;;;;;;;;;;14.00;99.90;;;;;;5074828;28;19904;-70
2022/10/15 05:02:54;;;;;;;;;;;13.90;99.90;;;;;;5074587;28;19913;-69
2022/10/15 05:05:19;;;;;;;;;;;13.90;99.90;;;;;;5074634;28;19912;-69
2022/10/15 05:07:45;;;;;;;;;;;13.90;99.90;;;;;;5074859;28;20351;-69
2022/10/15 05:10:10;;;;;;;;;;;13.90;99.90;;;;;;5074463;28;19995;-69
2022/10/15 05:12:36;;;;;;;;;;;13.80;99.90;;;;;;5074361;28;20367;-69
2022/10/15 05:15:02;;;;;;;;;;;13.80;99.90;;;;;;5074156;28;19918;-69
2022/10/15 05:17:29;;;;;;;;;;;13.70;99.90;;;;;;5074641;28;19951;-69
2022/10/15 05:19:54;;;;;;;;;;;13.70;99.90;;;;;;5074323;28;19946;-69
2022/10/15 05:22:20;;;;;;;;;;;13.80;99.90;;;;;;5072999;28;19955;-69
2022/10/15 05:24:46;;;;;;;;;;;13.70;99.90;;;;;;5074197;28;20354;-69
2022/10/15 05:27:11;;;;;;;;;;;13.70;99.90;;;;;;5073532;28;19904;-69
2022/10/15 05:29:38;;;;;;;;;;;13.60;99.90;;;;;;5074449;28;19909;-69
2022/10/15 05:32:04;;;;;;;;;;;13.60;99.90;;;;;;5073406;28;20359;-68
2022/10/15 05:34:30;;;;;;;;;;;13.60;99.90;;;;;;5074010;28;19912;-69
2022/10/15 05:36:55;;;;;;;;;;;13.60;99.90;;;;;;5073040;28;19908;-69
2022/10/15 05:39:21;;;;;;;;;;;13.60;99.90;;;;;;5073060;28;20026;-69
2022/10/15 05:41:46;;;;;;;;;;;13.50;99.90;;;;;;5073561;28;20267;-69
2022/10/15 05:44:12;;;;;;;;;;;13.50;99.90;;;;;;5073771;28;20389;-69
2022/10/15 05:46:37;;;;;;;;;;;13.60;99.90;;;;;;5074345;28;19908;-67
2022/10/15 05:49:03;;;;;;;;;;;13.50;99.90;;;;;;5074917;28;19991;-68
2022/10/15 05:51:28;;;;;;;;;;;13.50;99.90;;;;;;5073889;28;19958;-69
2022/10/15 05:53:55;;;;;;;;;;;13.50;99.90;;;;;;5073695;28;19908;-69
2022/10/15 05:56:20;;;;;;;;;;;13.40;99.90;;;;;;5073768;28;19934;-68
2022/10/15 05:58:46;;;;;;;;;;;13.40;99.90;;;;;;5073489;28;19905;-68
2022/10/15 06:01:12;;;;;;;;;;;13.50;99.90;;;;;;5073207;28;19911;-68
2022/10/15 06:03:39;;;;;;;;;;;13.50;99.90;;;;;;5073800;28;19957;-69
2022/10/15 06:06:11;;;;;;;;;;;13.40;99.90;;;;;;5073240;28;20367;-68
2022/10/15 06:08:37;;;;;;;;;;;13.40;99.90;;;;;;5073548;28;19909;-69
2022/10/15 06:11:03;;;;;;;;;;;13.40;99.90;;;;;;5073681;28;19912;-69
2022/10/15 06:13:28;;;;;;;;;;;13.50;99.90;;;;;;5072752;28;20371;-68
2022/10/15 06:15:54;;;;;;;;;;;13.50;99.90;;;;;;5073093;28;20046;-68
2022/10/15 06:18:19;;;;;;;;;;;13.50;99.90;;;;;;5072970;28;19938;-69
2022/10/15 06:20:50;;;;;;;;;;;13.50;99.90;;;;;;5073024;28;19915;-69
2022/10/15 06:23:16;;;;;;;;;;;13.50;99.90;;;;;;5072684;28;19923;-69
2022/10/15 06:25:41;;;;;;;;;;;13.50;99.90;;;;;;5073374;28;19998;-68
2022/10/15 06:28:08;;;;;;;;;;;13.60;99.90;;;;;;5072891;28;19904;-68
2022/10/15 06:30:34;;;;;;;;;;;13.70;99.90;;;;;;5072800;28;19905;-68
2022/10/15 06:32:59;;;;;;;;;;;13.70;99.90;;;;;;5072997;28;19909;-69
2022/10/15 06:35:25;;;;;;;;;;;13.80;99.90;;;;;;5072719;28;20290;-65
2022/10/15 06:37:51;;;;;;;;;;;13.90;99.90;;;;;;5071840;28;19908;-68
2022/10/15 06:40:17;;;;;;;;;;;14.00;99.90;;;;;;5072830;28;19908;-68
2022/10/15 06:42:43;;;;;;;;;;;14.60;99.90;;;;;;5072575;28;20336;-68
2022/10/15 06:45:09;;;;;;;;;;;15.60;99.90;;;;;;5072257;28;20414;-68
2022/10/15 06:47:35;;;;;;;;;;;16.30;99.90;;;;;;5072709;28;19955;-68
2022/10/15 06:50:01;;;;;;;;;;;16.80;99.90;;;;;;5072713;28;19904;-68
2022/10/15 06:52:28;;;;;;;;;;;17.00;99.90;;;;;;5072710;28;19911;-68
2022/10/15 06:54:53;;;;;;;;;;;17.10;99.90;;;;;;5072383;28;20003;-69
2022/10/15 06:57:19;;;;;;;;;;;17.60;99.90;;;;;;5071931;28;19947;-68
2022/10/15 06:59:44;;;;;;;;;;;18.00;99.90;;;;;;5071969;28;19904;-68
2022/10/15 07:02:10;;;;;;;;;;;18.60;99.90;;;;;;5072546;28;20410;-68
2022/10/15 07:04:36;;;;;;;;;;;18.90;99.90;;;;;;5072569;28;19904;-68
2022/10/15 07:07:01;;;;;;;;;;;19.30;99.90;;;;;;5072794;28;19944;-69
2022/10/15 07:09:27;;;;;;;;;;;19.50;99.90;;;;;;5072653;28;19912;-69
2022/10/15 07:11:53;;;;;;;;;;;19.90;99.90;;;;;;5072671;28;19912;-69
2022/10/15 07:14:18;;;;;;;;;;;18.40;99.90;;;;;;5072250;28;19908;-68
2022/10/15 07:16:44;;;;;;;;;;;18.50;99.90;;;;;;5072134;28;19999;-68
2022/10/15 07:19:09;;;;;;;;;;;17.50;99.90;;;;;;5071524;28;19920;-68
2022/10/15 07:21:35;;;;;;;;;;;19.20;99.90;;;;;;5071958;28;19980;-69
2022/10/15 07:24:00;;;;;;;;;;;19.70;99.90;;;;;;5072791;28;19912;-68
2022/10/15 07:26:29;;;;;;;;;;;20.70;99.90;;;;;;5072088;28;19912;-68
2022/10/15 07:28:55;;;;;;;;;;;20.60;99.90;;;;;;5072035;28;19904;-69
2022/10/15 07:31:21;;;;;;;;;;;20.90;99.90;;;;;;5072236;28;19927;-71
2022/10/15 07:33:47;;;;;;;;;;;22.00;99.90;;;;;;5072458;28;19908;-68
2022/10/15 07:36:12;;;;;;;;;;;22.50;99.90;;;;;;5072241;28;20293;-69
2022/10/15 07:38:41;;;;;;;;;;;23.00;99.90;;;;;;5071607;28;19967;-69
2022/10/15 07:41:07;;;;;;;;;;;23.00;99.90;;;;;;5072259;28;19946;-69
2022/10/15 07:43:33;;;;;;;;;;;23.60;99.90;;;;;;5071767;28;19913;-69
2022/10/15 07:45:59;;;;;;;;;;;22.00;99.90;;;;;;5072219;28;20355;-70
2022/10/15 07:48:25;;;;;;;;;;;20.60;99.90;;;;;;5072314;28;19954;-69
2022/10/15 07:50:57;;;;;;;;;;;20.00;99.90;;;;;;5075525;28;20355;-70
2022/10/15 07:53:23;;;;;;;;;;;19.30;99.90;;;;;;5075016;28;19998;-70
2022/10/15 07:55:49;;;;;;;;;;;19.20;99.90;;;;;;5076392;28;20023;-70
2022/10/15 07:58:14;;;;;;;;;;;19.70;99.90;;;;;;5075823;28;19916;-69
2022/10/15 08:00:40;;;;;;;;;;;19.60;99.90;;;;;;5076811;28;20345;-70
2022/10/15 08:03:06;;;;;;;;;;;19.70;99.90;;;;;;5076626;28;20324;-70
2022/10/15 08:05:32;;;;;;;;;;;20.10;99.90;;;;;;5075214;28;19973;-69
2022/10/15 08:07:57;;;;;;;;;;;19.60;99.90;;;;;;5075158;28;19958;-69
2022/10/15 08:10:23;;;;;;;;;;;19.10;99.90;;;;;;5075619;28;20374;-70
2022/10/15 08:12:49;;;;;;;;;;;18.80;99.90;;;;;;5075119;28;19905;-70
2022/10/15 08:15:14;;;;;;;;;;;19.10;99.90;;;;;;5076077;28;20054;-69
2022/10/15 08:17:40;;;;;;;;;;;21.30;99.90;;;;;;5075436;28;20383;-69
2022/10/15 08:20:05;;;;;;;;;;;20.50;99.90;;;;;;5075326;28;19914;-70
2022/10/15 08:22:32;;;;;;;;;;;20.10;99.90;;;;;;5075390;28;19915;-70
2022/10/15 08:24:57;;;;;;;;;;;21.60;99.90;;;;;;5075313;28;19912;-70
2022/10/15 08:27:23;;;;;;;;;;;21.50;99.90;;;;;;5075301;28;20046;-70
2022/10/15 08:29:48;;;;;;;;;;;20.20;99.90;;;;;;5075450;28;19904;-71
2022/10/15 08:32:14;;;;;;;;;;;19.60;99.90;;;;;;5075197;28;19908;-70
2022/10/15 08:34:39;;;;;;;;;;;21.40;99.90;;;;;;5074792;28;19939;-70
2022/10/15 08:37:05;;;;;;;;;;;21.60;99.90;;;;;;5074924;28;20486;-71
2022/10/15 08:39:30;;;;;;;;;;;24.10;99.90;;;;;;5074742;28;19926;-71
2022/10/15 08:41:58;;;;;;;;;;;26.10;99.90;;;;;;5074751;28;19939;-71
2022/10/15 08:44:24;;;;;;;;;;;;;;;;;;5075287;28;19915;-71
2022/10/15 08:46:53;;;;;;;;;;;25.70;99.90;;;;;;5074816;28;19987;-72
2022/10/15 08:49:29;;;;;;;;;;;24.50;99.90;;;;;;5075076;28;19904;-71
2022/10/15 08:52:00;;;;;;;;;;;23.50;99.90;;;;;;5074968;28;19904;-71
2022/10/15 08:54:26;;;;;;;;;;;23.80;99.90;;;;;;5074766;28;19927;-71
2022/10/15 08:57:03;;;;;;;;;;;24.40;99.90;;;;;;5074558;28;19979;-71
2022/10/15 08:59:43;;;;;;;;;;;25.30;99.90;;;;;;5075231;28;19904;-71
2022/10/15 09:02:14;;;;;;;;;;;25.20;99.90;;;;;;5073128;28;19904;-70
2022/10/15 09:05:06;;;;;;;;;;;24.10;99.90;;;;;;5074326;28;19914;-69
2022/10/15 09:07:53;;;;;;;;;;;24.80;99.90;;;;;;5012740;28;19910;-71
2022/10/15 09:10:28;;;;;;;;;;;26.40;99.90;;;;;;5012136;28;19906;-72
2022/10/15 09:13:04;;;;;;;;;;;27.40;99.90;;;;;;5012478;28;19909;-70
2022/10/15 09:15:36;;;;;;;;;;;26.40;99.90;;;;;;5012542;28;19996;-70
2022/10/15 09:18:01;;;;;;;;;;;26.10;99.90;;;;;;4995999;28;19917;-69
2022/10/15 09:20:32;;;;;;;;;;;26.80;99.90;;;;;;5013046;28;19929;-69
2022/10/15 09:22:57;;;;;;;;;;;25.80;99.90;;;;;;5012685;28;19949;-70
2022/10/15 09:25:23;;;;;;;;;;;24.90;99.90;;;;;;5012357;28;19949;-70
2022/10/15 09:27:50;;;;;;;;;;;24.20;99.90;;;;;;5012798;28;19909;-71
2022/10/15 09:30:34;;;;;;;;;;;24.20;99.90;;;;;;5012595;28;19917;-71
2022/10/15 09:33:19;;;;;;;;;;;24.40;99.90;;;;;;5012408;28;19968;-72
2022/10/15 09:35:53;;;;;;;;;;;24.70;99.90;;;;;;5012306;28;19906;-71
2022/10/15 09:38:40;;;;;;;;;;;25.30;99.90;;;;;;5012338;28;19935;-71
2022/10/15 09:41:17;;;;;;;;;;;24.70;99.90;;;;;;5012435;28;19921;-71
2022/10/15 09:43:45;;;;;;;;;;;25.50;99.90;;;;;;5022454;28;19966;-72
2022/10/15 09:46:11;;;;;;;;;;;28.50;99.90;;;;;;5067514;28;19905;-72
2022/10/15 09:48:40;;;;;;;;;;;29.80;99.90;;;;;;5074156;28;19908;-72
2022/10/15 09:51:12;;;;;;;;;;;28.70;99.90;;;;;;5073870;28;19909;-72
2022/10/15 09:53:44;;;;;;;;;;;29.70;99.90;;;;;;5072480;28;19908;-72
2022/10/15 09:56:13;;;;;;;;;;;30.40;99.90;;;;;;5073970;28;19913;-71
2022/10/15 09:58:51;;;;;;;;;;;30.00;99.90;;;;;;5072656;28;19904;-72
2022/10/15 10:01:18;;;;;;;;;;;30.40;99.90;;;;;;5072969;28;20039;-72
2022/10/15 10:03:44;;;;;;;;;;;29.10;99.90;;;;;;5073055;28;19919;-71
2022/10/15 10:06:11;;;;;;;;;;;29.70;99.90;;;;;;5072912;28;19909;-71
2022/10/15 10:08:39;;;;;;;;;;;29.80;99.90;;;;;;5073469;28;19904;-72
2022/10/15 10:11:07;;;;;;;;;;;30.30;99.90;;;;;;5073313;28;19934;-71
2022/10/15 10:13:34;;;;;;;;;;;30.10;99.90;;;;;;5073182;28;19908;-71
2022/10/15 10:16:02;;;;;;;;;;;30.40;99.90;;;;;;5073119;28;19904;-72
2022/10/15 10:18:27;;;;;;;;;;;28.90;99.90;;;;;;5073296;28;20364;-72
2022/10/15 10:20:58;;;;;;;;;;;27.90;99.90;;;;;;5073082;28;19909;-72
2022/10/15 10:23:24;;;;;;;;;;;27.00;99.90;;;;;;5072806;28;19913;-72
2022/10/15 10:25:50;;;;;;;;;;;30.00;99.90;;;;;;5073134;28;19912;-71
2022/10/15 10:28:18;;;;;;;;;;;30.90;99.90;;;;;;5073524;28;19904;-71
2022/10/15 10:30:49;;;;;;;;;;;30.70;99.90;;;;;;5073450;28;20245;-72
2022/10/15 10:33:19;;;;;;;;;;;30.90;99.90;;;;;;5072850;28;20435;-71
2022/10/15 10:35:48;;;;;;;;;;;30.30;99.90;;;;;;5071985;28;19958;-72
2022/10/15 10:38:22;;;;;;;;;;;30.80;99.90;;;;;;5073409;28;20248;-72
2022/10/15 10:40:52;;;;;;;;;;;29.50;99.90;;;;;;5072987;28;19958;-71
2022/10/15 10:43:20;;;;;;;;;;;29.00;99.90;;;;;;5073051;28;19912;-71
2022/10/15 10:45:53;;;;;;;;;;;28.30;99.90;;;;;;5072711;28;19995;-69
2022/10/15 10:48:20;;;;;;;;;;;27.10;99.90;;;;;;5072993;28;19904;-71
2022/10/15 10:50:46;;;;;;;;;;;26.30;99.90;;;;;;5072958;28;19908;-71
2022/10/15 10:53:22;;;;;;;;;;;27.10;99.90;;;;;;5072453;28;20323;-72
2022/10/15 10:55:48;;;;;;;;;;;27.00;99.90;;;;;;5072364;28;19911;-71
2022/10/15 10:58:17;;;;;;;;;;;25.50;99.90;;;;;;5072491;28;19944;-71
2022/10/15 11:00:46;;;;;;;;;;;26.80;99.90;;;;;;5072706;28;19937;-77
2022/10/15 11:03:32;;;;;;;;;;;27.40;99.90;;;;;;5072174;28;20282;-72
2022/10/15 11:06:16;;;;;;;;;;;28.20;99.90;;;;;;5071965;28;19991;-71
2022/10/15 11:09:01;;;;;;;;;;;27.60;99.90;;;;;;5072677;28;19904;-72
2022/10/15 11:11:26;;;;;;;;;;;27.60;99.90;;;;;;5072496;28;19904;-71
2022/10/15 11:14:16;;;;;;;;;;;26.50;99.90;;;;;;5072043;28;20399;-70
2022/10/15 11:16:52;;;;;;;;;;;27.80;99.90;;;;;;5064477;28;19905;-71
2022/10/15 11:19:24;;;;;;;;;;;27.80;99.90;;;;;;5072066;28;19923;-68
2022/10/15 11:21:52;;;;;;;;;;;28.00;99.90;;;;;;5072595;28;19943;-71
2022/10/15 11:24:21;;;;;;;;;;;27.70;99.90;;;;;;5071787;28;19969;-70
2022/10/15 11:26:49;;;;;;;;;;;26.80;99.90;;;;;;5072119;28;19904;-70
2022/10/15 11:29:19;;;;;;;;;;;27.30;99.90;;;;;;5072359;28;19908;-70
2022/10/15 11:32:03;;;;;;;;;;;27.90;99.90;;;;;;5072586;28;19932;-70
2022/10/15 11:34:47;;;;;;;;;;;28.20;99.90;;;;;;5072041;28;20398;-69
2022/10/15 11:37:15;;;;;;;;;;;27.40;99.90;;;;;;5072285;28;19911;-70
2022/10/15 11:40:00;;;;;;;;;;;28.60;99.90;;;;;;5072339;28;19915;-70
2022/10/15 11:42:39;;;;;;;;;;;29.10;99.90;;;;;;5072242;28;19942;-70
2022/10/15 11:45:15;;;;;;;;;;;27.90;99.90;;;;;;5072119;28;19916;-69
2022/10/15 11:47:44;;;;;;;;;;;28.10;99.90;;;;;;5072304;28;19912;-70
2022/10/15 11:50:15;;;;;;;;;;;27.80;99.90;;;;;;5071453;28;19908;-70
2022/10/15 11:52:59;;;;;;;;;;;27.40;99.90;;;;;;5071521;28;19984;-69
2022/10/15 11:55:25;;;;;;;;;;;26.70;99.90;;;;;;5072459;28;19915;-70
2022/10/15 11:57:52;;;;;;;;;;;26.20;99.90;;;;;;5071864;28;19904;-70
2022/10/15 12:00:24;;;;;;;;;;;27.20;99.90;;;;;;5071872;28;19908;-70
2022/10/15 12:02:49;;;;;;;;;;;28.40;99.90;;;;;;5071560;28;19912;-70
2022/10/15 12:05:37;;;;;;;;;;;28.80;99.90;;;;;;5071909;28;19915;-70
2022/10/15 12:08:03;;;;;;;;;;;29.00;99.90;;;;;;5071989;28;19905;-69
2022/10/15 12:10:38;;;;;;;;;;;28.80;99.90;;;;;;5072150;28;19912;-69
2022/10/15 12:13:16;;;;;;;;;;;29.10;99.90;;;;;;5071896;28;20306;-70
2022/10/15 12:15:46;;;;;;;;;;;28.90;99.90;;;;;;5071930;28;20298;-70
2022/10/15 12:18:28;;;;;;;;;;;28.60;99.90;;;;;;5071575;28;19920;-70
2022/10/15 12:20:57;;;;;;;;;;;27.50;99.90;;;;;;5072339;28;20447;-70
2022/10/15 12:23:37;;;;;;;;;;;27.10;99.90;;;;;;5071848;28;20328;-70
2022/10/15 12:26:22;;;;;;;;;;;27.20;99.90;;;;;;5071771;28;19912;-70
2022/10/15 12:28:49;;;;;;;;;;;26.80;99.90;;;;;;5071200;28;19954;-69
2022/10/15 12:31:19;;;;;;;;;;;27.60;99.90;;;;;;5070843;28;20437;-70
2022/10/15 12:33:48;;;;;;;;;;;27.80;99.90;;;;;;5071380;28;19912;-70
2022/10/15 12:36:27;;;;;;;;;;;28.00;99.90;;;;;;5073582;28;19912;-71
2022/10/15 12:38:55;;;;;;;;;;;28.10;99.90;;;;;;5075607;28;19908;-69
2022/10/15 12:41:21;;;;;;;;;;;27.10;99.90;;;;;;5075084;28;19904;-69
2022/10/15 12:43:50;;;;;;;;;;;26.50;99.90;;;;;;5075127;28;20405;-69
2022/10/15 12:46:16;;;;;;;;;;;26.20;99.90;;;;;;5074563;28;19912;-70
2022/10/15 12:48:43;;;;;;;;;;;26.50;99.90;;;;;;5073912;28;20320;-68
2022/10/15 12:51:29;;;;;;;;;;;26.20;99.90;;;;;;5075120;28;19908;-70
2022/10/15 12:53:56;;;;;;;;;;;25.50;99.90;;;;;;5075170;28;19976;-70
2022/10/15 12:56:23;;;;;;;;;;;25.60;99.90;;;;;;5075001;28;19908;-69
2022/10/15 12:58:55;;;;;;;;;;;25.70;99.90;;;;;;5074719;28;19911;-70
2022/10/15 13:01:20;;;;;;;;;;;26.00;99.90;;;;;;5074424;28;20086;-69
2022/10/15 13:03:49;;;;;;;;;;;26.30;99.90;;;;;;5074853;28;19924;-70
2022/10/15 13:06:21;;;;;;;;;;;26.40;99.90;;;;;;5075186;28;19911;-70
2022/10/15 13:08:46;;;;;;;;;;;26.50;99.90;;;;;;5074780;28;19958;-69
2022/10/15 13:11:31;;;;;;;;;;;26.20;99.90;;;;;;5074499;28;19905;-69
2022/10/15 13:14:15;;;;;;;;;;;25.90;99.90;;;;;;5074433;28;20362;-70
2022/10/15 13:16:44;;;;;;;;;;;25.90;99.90;;;;;;5074433;28;20343;-72
2022/10/15 13:19:21;;;;;;;;;;;26.00;99.90;;;;;;5074583;28;19924;-71
2022/10/15 13:21:47;;;;;;;;;;;25.80;99.90;;;;;;5074727;28;19950;-69
2022/10/15 13:24:15;;;;;;;;;;;25.00;99.90;;;;;;5074697;28;20458;-72
2022/10/15 13:26:40;;;;;;;;;;;25.60;99.90;;;;;;5074249;28;19932;-68
2022/10/15 13:29:13;;;;;;;;;;;26.10;99.90;;;;;;5074838;28;19958;-70
2022/10/15 13:31:39;;;;;;;;;;;26.30;99.90;;;;;;5074249;28;19904;-70
2022/10/15 13:34:05;;;;;;;;;;;26.20;99.90;;;;;;5074334;28;19995;-71
2022/10/15 13:36:31;;;;;;;;;;;26.40;99.90;;;;;;5074348;28;20263;-70
2022/10/15 13:39:19;;;;;;;;;;;26.50;99.90;;;;;;5074719;28;19905;-72
2022/10/15 13:41:44;;;;;;;;;;;25.90;99.90;;;;;;5074460;28;19904;-71
2022/10/15 13:44:23;;;;;;;;;;;25.30;99.90;;;;;;5073791;28;19912;-72
2022/10/15 13:46:48;;;;;;;;;;;25.30;99.90;;;;;;5073459;28;19962;-72
2022/10/15 13:49:14;;;;;;;;;;;26.00;99.90;;;;;;5074233;28;19904;-72
2022/10/15 13:51:40;;;;;;;;;;;26.30;99.90;;;;;;5072771;28;19904;-71
2022/10/15 13:54:08;;;;;;;;;;;26.50;99.90;;;;;;5073954;28;20252;-71
2022/10/15 13:56:34;;;;;;;;;;;26.60;99.90;;;;;;5073809;28;19911;-72
2022/10/15 13:59:00;;;;;;;;;;;26.30;99.90;;;;;;5073549;28;19904;-72
2022/10/15 14:01:26;;;;;;;;;;;26.40;99.90;;;;;;5073851;28;19909;-72
2022/10/15 14:03:53;;;;;;;;;;;26.40;99.90;;;;;;5073584;28;19916;-72
2022/10/15 14:06:21;;;;;;;;;;;26.20;99.90;;;;;;5074052;28;19928;-72
2022/10/15 14:08:48;;;;;;;;;;;26.40;99.90;;;;;;5073223;28;20374;-66
2022/10/15 14:11:14;;;;;;;;;;;26.40;99.90;;;;;;5073433;28;19916;-68
2022/10/15 14:13:50;;;;;;;;;;;26.40;99.90;;;;;;5073189;28;19905;-62
2022/10/15 14:16:20;;;;;;;;;;;26.20;99.90;;;;;;5073566;28;19954;-60
2022/10/15 14:18:53;;;;;;;;;;;26.00;99.90;;;;;;5073415;28;19920;-62
2022/10/15 14:21:30;;;;;;;;;;;25.90;99.90;;;;;;5073319;28;20374;-61
2022/10/15 14:24:11;;;;;;;;;;;26.20;99.90;;;;;;5073800;28;20290;-62
2022/10/15 14:26:38;;;;;;;;;;;25.80;99.90;;;;;;5073166;28;19911;-62
2022/10/15 14:29:04;;;;;;;;;;;26.20;99.90;;;;;;5073571;28;19977;-61